createdAt,value
2018-06-03T00:00:06.798Z,101818.61
2018-06-03T00:02:33.086Z,101815.12
2018-06-03T00:04:59.232Z,101819.55
2018-06-03T00:07:25.651Z,101825.30
2018-06-03T00:09:51.812Z,101814.70
2018-06-03T00:12:17.962Z,101808.55
2018-06-03T00:14:44.133Z,101810.36
2018-06-03T00:17:10.273Z,101809.48
2018-06-03T00:19:36.450Z,101815.23
2018-06-03T00:22:02.647Z,101815.27
2018-06-03T00:24:29.076Z,101808.20
2018-06-03T00:26:55.450Z,101815.28
2018-06-03T00:29:21.587Z,101820.14
2018-06-03T00:31:47.750Z,101825.48
2018-06-03T00:34:13.884Z,101825.92
2018-06-03T00:36:42.385Z,101832.56
2018-06-03T00:39:09.051Z,101828.14
2018-06-03T00:41:35.184Z,101829.47
2018-06-03T00:44:01.370Z,101825.09
2018-06-03T00:46:27.544Z,101831.28
2018-06-03T00:48:54.139Z,101835.27
2018-06-03T00:51:20.263Z,101828.23
2018-06-03T00:53:46.399Z,101834.86
2018-06-03T00:56:24.771Z,101833.09
2018-06-03T00:58:50.931Z,101836.20
2018-06-03T01:01:17.102Z,101833.11
2018-06-03T01:03:43.550Z,101837.09
2018-06-03T01:06:09.997Z,101836.68
2018-06-03T01:08:36.133Z,101833.59
2018-06-03T01:11:02.266Z,101834.03
2018-06-03T01:13:28.453Z,101834.03
2018-06-03T01:15:54.647Z,101837.13
2018-06-03T01:18:20.870Z,101841.15
2018-06-03T01:20:47.247Z,101844.69
2018-06-03T01:23:13.523Z,101843.36
2018-06-03T01:25:39.668Z,101849.52
2018-06-03T01:28:05.798Z,101852.20
2018-06-03T01:30:31.960Z,101847.78
2018-06-03T01:32:58.113Z,101844.69
2018-06-03T01:35:24.385Z,101845.58
2018-06-03T01:37:50.516Z,101839.87
2018-06-03T01:40:16.732Z,101838.55
2018-06-03T01:42:42.907Z,101830.16
2018-06-03T01:45:09.057Z,101832.85
2018-06-03T01:47:35.240Z,101828.88
2018-06-03T01:50:01.388Z,101829.77
2018-06-03T01:52:27.683Z,101830.24
2018-06-03T01:54:53.816Z,101836.87
2018-06-03T01:57:20.046Z,101832.46
2018-06-03T01:59:46.456Z,101827.64
2018-06-03T02:02:12.608Z,101828.97
2018-06-03T02:04:38.756Z,101831.22
2018-06-03T02:07:04.881Z,101827.24
2018-06-03T02:09:31.089Z,101829.02
2018-06-03T02:11:57.221Z,101828.14
2018-06-03T02:14:23.346Z,101820.66
2018-06-03T02:16:49.521Z,101823.77
2018-06-03T02:19:15.780Z,101816.73
2018-06-03T02:21:41.916Z,101822.05
2018-06-03T02:24:08.358Z,101821.64
2018-06-03T02:26:34.552Z,101827.84
2018-06-03T02:29:00.705Z,101823.91
2018-06-03T02:31:26.828Z,101821.30
2018-06-03T02:33:53.008Z,101818.66
2018-06-03T02:36:19.163Z,101823.52
2018-06-03T02:38:45.348Z,101817.77
2018-06-03T02:41:11.498Z,101821.35
2018-06-03T02:43:37.642Z,101824.05
2018-06-03T02:46:03.827Z,101814.77
2018-06-03T02:48:29.955Z,101819.23
2018-06-03T02:50:56.122Z,101809.96
2018-06-03T02:53:22.291Z,101815.73
2018-06-03T02:55:48.573Z,101816.19
2018-06-03T02:58:14.743Z,101822.86
2018-06-03T03:00:40.886Z,101823.30
2018-06-03T03:03:07.087Z,101830.81
2018-06-03T03:05:33.233Z,101837.00
2018-06-03T03:07:59.442Z,101837.93
2018-06-03T03:10:25.594Z,101839.26
2018-06-03T03:12:51.732Z,101834.84
2018-06-03T03:15:17.889Z,101827.38
2018-06-03T03:17:44.037Z,101823.84
2018-06-03T03:20:10.315Z,101827.38
2018-06-03T03:22:36.464Z,101833.13
2018-06-03T03:25:02.612Z,101834.92
2018-06-03T03:27:28.898Z,101832.28
2018-06-03T03:29:55.028Z,101837.14
2018-06-03T03:32:21.155Z,101829.19
2018-06-03T03:34:47.336Z,101829.63
2018-06-03T03:37:13.512Z,101826.14
2018-06-03T03:39:39.679Z,101827.91
2018-06-03T03:42:05.845Z,101829.67
2018-06-03T03:44:31.971Z,101825.70
2018-06-03T03:46:58.115Z,101830.13
2018-06-03T03:49:24.301Z,101829.68
2018-06-03T03:51:50.435Z,101832.38
2018-06-03T03:54:16.611Z,101831.48
2018-06-03T03:56:42.743Z,101830.56
2018-06-03T03:59:09.252Z,101836.75
2018-06-03T04:01:35.415Z,101828.84
2018-06-03T04:04:01.549Z,101833.66
2018-06-03T04:06:27.811Z,101830.16
2018-06-03T04:08:53.948Z,101832.33
2018-06-03T04:11:20.083Z,101831.89
2018-06-03T04:13:46.373Z,101841.13
2018-06-03T04:16:12.499Z,101834.09
2018-06-03T04:18:38.739Z,101834.48
2018-06-03T04:21:05.410Z,101837.09
2018-06-03T04:23:31.728Z,101840.63
2018-06-03T04:25:57.856Z,101834.44
2018-06-03T04:28:24.027Z,101837.09
2018-06-03T04:30:50.209Z,101838.86
2018-06-03T04:33:16.348Z,101845.45
2018-06-03T04:35:42.507Z,101843.28
2018-06-03T04:38:08.667Z,101847.27
2018-06-03T04:40:34.812Z,101851.72
2018-06-03T04:43:00.948Z,101854.37
2018-06-03T04:45:27.480Z,101853.53
2018-06-03T04:47:53.605Z,101852.21
2018-06-03T04:50:19.734Z,101853.09
2018-06-03T04:52:45.895Z,101858.40
2018-06-03T04:55:12.033Z,101857.08
2018-06-03T04:57:38.207Z,101861.05
2018-06-03T05:00:04.367Z,101861.97
2018-06-03T05:02:30.684Z,101858.40
2018-06-03T05:04:56.819Z,101850.88
2018-06-03T05:07:22.943Z,101856.19
2018-06-03T05:09:49.220Z,101852.16
2018-06-03T05:12:15.374Z,101855.25
2018-06-03T05:14:41.518Z,101853.89
2018-06-03T05:17:07.763Z,101854.28
2018-06-03T05:19:34.136Z,101856.89
2018-06-03T05:22:00.404Z,101857.72
2018-06-03T05:24:26.786Z,101860.33
2018-06-03T05:26:52.924Z,101860.69
2018-06-03T05:29:19.587Z,101858.46
2018-06-03T05:31:45.731Z,101860.67
2018-06-03T05:34:11.868Z,101859.79
2018-06-03T05:36:38.040Z,101864.16
2018-06-03T05:39:04.266Z,101856.17
2018-06-03T05:41:30.447Z,101848.16
2018-06-03T05:43:56.588Z,101852.54
2018-06-03T05:46:22.763Z,101854.26
2018-06-03T05:48:49.167Z,101857.75
2018-06-03T05:51:15.499Z,101859.02
2018-06-03T05:53:41.643Z,101860.30
2018-06-03T05:56:07.789Z,101858.94
2018-06-03T05:58:34.318Z,101864.63
2018-06-03T06:01:00.442Z,101865.47
2018-06-03T06:03:26.603Z,101870.23
2018-06-03T06:05:52.773Z,101865.77
2018-06-03T06:08:18.952Z,101861.69
2018-06-03T06:10:45.162Z,101861.05
2018-06-03T06:13:11.295Z,101859.94
2018-06-03T06:15:37.437Z,101861.95
2018-06-03T06:18:03.609Z,101863.96
2018-06-03T06:20:29.769Z,101854.53
2018-06-03T06:22:55.921Z,101848.64
2018-06-03T06:25:22.144Z,101856.09
2018-06-03T06:27:48.468Z,101855.49
2018-06-03T06:30:14.608Z,101860.60
2018-06-03T06:32:40.808Z,101857.30
2018-06-03T06:35:06.972Z,101862.86
2018-06-03T06:37:33.122Z,101868.94
2018-06-03T06:39:59.467Z,101873.72
2018-06-03T06:42:26.014Z,101870.56
2018-06-03T06:44:52.521Z,101867.47
2018-06-03T06:47:18.759Z,101869.62
2018-06-03T06:49:45.212Z,101874.45
2018-06-03T06:52:11.503Z,101876.66
2018-06-03T06:54:37.933Z,101874.89
2018-06-03T06:57:04.084Z,101875.43
2018-06-03T06:59:30.704Z,101882.56
2018-06-03T07:01:56.944Z,101883.89
2018-06-03T07:04:23.337Z,101886.10
2018-06-03T07:06:49.572Z,101885.17
2018-06-03T07:09:15.965Z,101887.43
2018-06-03T07:11:42.242Z,101890.53
2018-06-03T07:14:08.671Z,101893.28
2018-06-03T07:16:34.823Z,101896.83
2018-06-03T07:19:02.800Z,101900.41
2018-06-03T07:21:28.926Z,101899.14
2018-06-03T07:23:55.057Z,101896.09
2018-06-03T07:26:21.240Z,101900.95
2018-06-03T07:28:47.359Z,101902.23
2018-06-03T07:31:13.720Z,101904.00
2018-06-03T07:33:39.860Z,101900.42
2018-06-03T07:36:05.995Z,101906.16
2018-06-03T07:38:32.200Z,101906.52
2018-06-03T07:40:58.349Z,101905.13
2018-06-03T07:43:24.491Z,101898.83
2018-06-03T07:45:50.754Z,101899.13
2018-06-03T07:48:16.912Z,101899.81
2018-06-03T07:50:43.067Z,101901.88
2018-06-03T07:53:09.266Z,101901.22
2018-06-03T07:55:35.412Z,101904.95
2018-06-03T07:58:01.581Z,101903.87
2018-06-03T08:00:27.837Z,101903.27
2018-06-03T08:02:53.992Z,101908.45
2018-06-03T08:05:20.173Z,101909.22
2018-06-03T08:07:46.379Z,101905.98
2018-06-03T08:10:12.552Z,101904.15
2018-06-03T08:12:39.025Z,101901.83
2018-06-03T08:15:05.348Z,101903.00
2018-06-03T08:17:31.490Z,101907.71
2018-06-03T08:20:28.574Z,101903.87
2018-06-03T08:22:56.428Z,101906.86
2018-06-03T08:25:24.093Z,101910.34
2018-06-03T08:27:51.933Z,101904.64
2018-06-03T08:30:20.264Z,101913.94
2018-06-03T08:32:48.434Z,101920.14
2018-06-03T08:35:16.354Z,101914.38
2018-06-03T08:37:44.562Z,101921.08
2018-06-03T08:40:12.266Z,101914.05
2018-06-03T08:42:39.965Z,101923.34
2018-06-03T08:45:07.842Z,101919.89
2018-06-03T08:47:36.194Z,101919.89
2018-06-03T08:50:04.427Z,101921.27
2018-06-03T08:52:32.336Z,101922.45
2018-06-03T08:55:00.017Z,101921.02
2018-06-03T08:57:27.776Z,101926.28
2018-06-03T08:59:55.452Z,101925.01
2018-06-03T09:02:23.266Z,101930.32
2018-06-03T09:04:51.009Z,101929.87
2018-06-03T09:07:19.958Z,101933.86
2018-06-03T09:09:49.228Z,101931.20
2018-06-03T09:12:17.420Z,101928.11
2018-06-03T09:14:45.568Z,101931.18
2018-06-03T09:17:13.762Z,101940.39
2018-06-03T09:19:41.633Z,101939.77
2018-06-03T09:22:09.963Z,101937.46
2018-06-03T09:24:37.777Z,101938.78
2018-06-03T09:27:05.828Z,101935.25
2018-06-03T09:29:33.834Z,101931.27
2018-06-03T09:32:01.532Z,101940.06
2018-06-03T09:34:29.384Z,101944.05
2018-06-03T09:36:57.568Z,101940.45
2018-06-03T09:39:25.556Z,101941.78
2018-06-03T09:41:53.218Z,101934.80
2018-06-03T09:44:20.906Z,101938.45
2018-06-03T09:46:48.621Z,101940.77
2018-06-03T09:49:17.203Z,101944.31
2018-06-03T09:51:45.151Z,101937.67
2018-06-03T09:54:12.809Z,101932.31
2018-06-03T09:56:40.783Z,101937.91
2018-06-03T09:59:08.444Z,101939.92
2018-06-03T10:01:36.360Z,101938.98
2018-06-03T10:04:05.456Z,101944.25
2018-06-03T10:06:33.528Z,101942.47
2018-06-03T10:09:05.641Z,101942.41
2018-06-03T10:11:33.310Z,101942.27
2018-06-03T10:14:01.137Z,101949.68
2018-06-03T10:16:29.554Z,101943.27
2018-06-03T10:18:57.292Z,101944.00
2018-06-03T10:21:25.092Z,101944.28
2018-06-03T10:23:53.040Z,101942.89
2018-06-03T10:26:21.443Z,101945.89
2018-06-03T10:28:49.736Z,101946.67
2018-06-03T10:31:25.431Z,101945.23
2018-06-03T10:33:54.050Z,101945.57
2018-06-03T10:36:22.559Z,101948.06
2018-06-03T10:38:50.247Z,101945.64
2018-06-03T10:41:17.911Z,101939.37
2018-06-03T10:43:45.730Z,101945.50
2018-06-03T10:46:13.664Z,101944.96
2018-06-03T10:48:41.311Z,101946.23
2018-06-03T10:51:09.280Z,101942.13
2018-06-03T10:53:36.975Z,101942.46
2018-06-03T10:56:05.366Z,101945.00
2018-06-03T10:58:33.025Z,101940.02
2018-06-03T11:01:00.719Z,101938.20
2018-06-03T11:03:28.413Z,101944.80
2018-06-03T11:05:56.145Z,101938.58
2018-06-03T11:08:23.938Z,101940.30
2018-06-03T11:10:51.740Z,101943.80
2018-06-03T11:13:19.397Z,101940.80
2018-06-03T11:15:47.074Z,101937.75
2018-06-03T11:18:15.043Z,101940.86
2018-06-03T11:20:43.013Z,101936.88
2018-06-03T11:23:10.688Z,101937.15
2018-06-03T11:25:38.363Z,101930.83
2018-06-03T11:28:06.032Z,101924.45
2018-06-03T11:30:34.073Z,101923.00
2018-06-03T11:33:02.006Z,101917.08
2018-06-03T11:35:29.683Z,101918.23
2018-06-03T11:37:57.383Z,101909.70
2018-06-03T11:40:25.057Z,101912.23
2018-06-03T11:42:53.408Z,101909.52
2018-06-03T11:45:21.047Z,101917.83
2018-06-03T11:47:48.691Z,101915.98
2018-06-03T11:50:16.752Z,101918.97
2018-06-03T11:52:44.429Z,101916.77
2018-06-03T11:55:12.253Z,101915.10
2018-06-03T11:58:53.579Z,101919.22
2018-06-03T12:01:21.404Z,101918.10
2018-06-03T12:03:49.128Z,101917.83
2018-06-03T12:06:16.795Z,101914.42
2018-06-03T12:08:44.625Z,101914.09
2018-06-03T12:11:12.549Z,101913.75
2018-06-03T12:13:40.759Z,101907.98
2018-06-03T12:16:08.428Z,101915.14
2018-06-03T12:18:36.106Z,101907.05
2018-06-03T12:21:03.800Z,101907.86
2018-06-03T12:23:32.237Z,101909.97
2018-06-03T12:25:59.920Z,101912.18
2018-06-03T12:28:27.600Z,101907.31
2018-06-03T12:30:55.643Z,101910.09
2018-06-03T12:33:23.548Z,101915.08
2018-06-03T12:35:51.532Z,101909.04
2018-06-03T12:38:19.695Z,101903.00
2018-06-03T12:40:47.368Z,101911.09
2018-06-03T12:43:15.334Z,101904.17
2018-06-03T12:45:43.279Z,101905.56
2018-06-03T12:48:10.971Z,101906.50
2018-06-03T12:50:38.615Z,101898.91
2018-06-03T12:53:06.295Z,101898.86
2018-06-03T12:55:34.108Z,101905.84
2018-06-03T12:58:01.777Z,101899.58
2018-06-03T13:00:29.706Z,101899.06
2018-06-03T13:02:57.389Z,101896.34
2018-06-03T13:05:25.122Z,101894.14
2018-06-03T13:07:52.815Z,101897.73
2018-06-03T13:10:20.504Z,101885.83
2018-06-03T13:12:48.178Z,101896.86
2018-06-03T13:15:15.972Z,101893.87
2018-06-03T13:17:43.645Z,101897.98
2018-06-03T13:20:11.304Z,101889.27
2018-06-03T13:22:39.489Z,101891.20
2018-06-03T13:25:07.750Z,101887.34
2018-06-03T13:27:35.439Z,101890.55
2018-06-03T13:30:03.145Z,101883.41
2018-06-03T13:32:31.117Z,101885.23
2018-06-03T13:34:58.820Z,101882.65
2018-06-03T13:37:26.512Z,101886.37
2018-06-03T13:39:54.608Z,101881.31
2018-06-03T13:42:22.289Z,101882.37
2018-06-03T13:44:49.930Z,101878.95
2018-06-03T13:47:18.037Z,101880.77
2018-06-03T13:49:45.680Z,101873.30
2018-06-03T13:52:13.323Z,101867.20
2018-06-03T13:54:41.340Z,101864.93
2018-06-03T13:57:09.335Z,101864.00
2018-06-03T13:59:37.396Z,101862.09
2018-06-03T14:02:05.077Z,101863.70
2018-06-03T14:04:32.812Z,101857.39
2018-06-03T14:07:00.753Z,101855.91
2018-06-03T14:09:28.460Z,101858.51
2018-06-03T14:11:56.229Z,101857.12
2018-06-03T14:14:23.877Z,101852.14
2018-06-03T14:16:51.550Z,101853.34
2018-06-03T14:19:19.264Z,101850.66
2018-06-03T14:21:46.949Z,101852.77
2018-06-03T14:24:14.603Z,101850.38
2018-06-03T14:26:42.396Z,101850.98
2018-06-03T14:29:10.059Z,101847.72
2018-06-03T14:31:37.745Z,101847.05
2018-06-03T14:34:05.714Z,101849.58
2018-06-03T14:36:33.361Z,101844.98
2018-06-03T14:39:01.043Z,101836.42
2018-06-03T14:41:28.719Z,101829.75
2018-06-03T14:43:56.447Z,101838.26
2018-06-03T14:46:24.611Z,101836.35
2018-06-03T14:48:52.292Z,101833.08
2018-06-03T14:51:20.262Z,101835.47
2018-06-03T14:53:47.928Z,101828.14
2018-06-03T14:56:15.599Z,101822.69
2018-06-03T14:58:43.286Z,101819.23
2018-06-03T15:01:10.968Z,101818.11
2018-06-03T15:03:38.915Z,101813.34
2018-06-03T15:06:06.726Z,101816.02
2018-06-03T15:08:34.447Z,101808.89
2018-06-03T15:11:02.111Z,101804.84
2018-06-03T15:13:29.826Z,101798.88
2018-06-03T15:15:57.720Z,101805.59
2018-06-03T15:18:25.810Z,101804.33
2018-06-03T15:20:53.779Z,101806.54
2018-06-03T15:23:21.517Z,101801.22
2018-06-03T15:25:49.259Z,101802.87
2018-06-03T15:28:17.240Z,101800.53
2018-06-03T15:30:44.893Z,101797.98
2018-06-03T15:33:12.597Z,101795.82
2018-06-03T15:35:40.268Z,101794.25
2018-06-03T15:38:08.247Z,101790.71
2018-06-03T15:40:35.955Z,101784.75
2018-06-03T15:43:03.965Z,101777.84
2018-06-03T15:45:31.673Z,101784.18
2018-06-03T15:47:59.381Z,101776.75
2018-06-03T15:50:27.082Z,101773.45
2018-06-03T15:52:54.947Z,101771.43
2018-06-03T15:55:22.743Z,101780.48
2018-06-03T15:57:50.452Z,101771.54
2018-06-03T16:00:18.149Z,101775.16
2018-06-03T16:02:45.867Z,101772.87
2018-06-03T16:05:13.553Z,101772.17
2018-06-03T16:07:41.259Z,101778.73
2018-06-03T16:10:09.285Z,101772.35
2018-06-03T16:12:37.600Z,101764.53
2018-06-03T16:15:05.579Z,101762.92
2018-06-03T16:17:33.308Z,101759.30
2018-06-03T16:20:01.013Z,101761.82
2018-06-03T16:22:28.681Z,101753.88
2018-06-03T16:24:56.391Z,101756.02
2018-06-03T16:27:24.056Z,101757.27
2018-06-03T16:29:51.788Z,101752.28
2018-06-03T16:32:19.756Z,101751.13
2018-06-03T16:34:47.496Z,101754.34
2018-06-03T16:37:15.173Z,101754.34
2018-06-03T16:39:43.173Z,101747.58
2018-06-03T16:42:10.858Z,101752.07
2018-06-03T16:44:38.533Z,101751.97
2018-06-03T16:47:06.223Z,101754.10
2018-06-03T16:49:33.894Z,101749.33
2018-06-03T16:52:01.714Z,101749.28
2018-06-03T16:54:29.421Z,101750.98
2018-06-03T16:56:57.107Z,101742.58
2018-06-03T16:59:24.864Z,101750.61
2018-06-03T17:01:52.527Z,101748.01
2018-06-03T17:04:20.257Z,101745.45
2018-06-03T17:06:48.275Z,101740.77
2018-06-03T17:09:15.946Z,101737.93
2018-06-03T17:11:43.937Z,101732.68
2018-06-03T17:14:11.753Z,101730.93
2018-06-03T17:16:39.726Z,101726.83
2018-06-03T17:19:07.440Z,101729.75
2018-06-03T17:21:35.587Z,101726.48
2018-06-03T17:24:03.266Z,101723.31
2018-06-03T17:26:30.943Z,101727.56
2018-06-03T17:28:58.649Z,101722.88
2018-06-03T17:31:26.341Z,101714.20
2018-06-03T17:33:54.284Z,101717.29
2018-06-03T17:36:22.150Z,101713.45
2018-06-03T17:38:51.269Z,101717.57
2018-06-03T17:41:19.475Z,101713.16
2018-06-03T17:43:47.393Z,101709.72
2018-06-03T17:46:15.183Z,101708.01
2018-06-03T17:48:43.148Z,101704.17
2018-06-03T17:51:10.827Z,101699.37
2018-06-03T17:53:38.508Z,101699.56
2018-06-03T17:56:06.258Z,101690.38
2018-06-03T17:58:33.949Z,101698.09
2018-06-03T18:01:01.652Z,101697.80
2018-06-03T18:03:30.897Z,101698.34
2018-06-03T18:05:58.950Z,101687.47
2018-06-03T18:08:26.942Z,101693.27
2018-06-03T18:10:54.764Z,101687.64
2018-06-03T18:13:23.072Z,101684.75
2018-06-03T18:15:51.287Z,101681.78
2018-06-03T18:18:18.986Z,101678.40
2018-06-03T18:20:46.878Z,101680.88
2018-06-03T18:23:14.960Z,101680.66
2018-06-03T18:25:42.855Z,101677.33
2018-06-03T18:28:10.594Z,101675.88
2018-06-03T18:30:38.597Z,101673.83
2018-06-03T18:33:06.469Z,101665.22
2018-06-03T18:35:34.352Z,101674.34
2018-06-03T18:38:03.093Z,101673.27
2018-06-03T18:40:30.836Z,101676.17
2018-06-03T18:42:59.371Z,101670.69
2018-06-03T18:45:29.294Z,101670.47
2018-06-03T18:47:56.972Z,101671.27
2018-06-03T18:50:24.676Z,101667.98
2018-06-03T18:52:53.495Z,101662.92
2018-06-03T18:55:21.852Z,101662.20
2018-06-03T18:57:50.531Z,101660.22
2018-06-03T19:00:18.449Z,101663.98
2018-06-03T19:02:46.106Z,101660.78
2018-06-03T19:05:20.465Z,101657.50
2018-06-03T19:07:48.461Z,101647.17
2018-06-03T19:10:16.862Z,101649.30
2018-06-03T19:12:44.576Z,101643.42
2018-06-03T19:15:12.237Z,101645.30
2018-06-03T19:17:39.969Z,101650.16
2018-06-03T19:20:07.679Z,101655.36
2018-06-03T19:22:35.735Z,101653.97
2018-06-03T19:25:04.356Z,101656.53
2018-06-03T19:27:32.075Z,101653.70
2018-06-03T19:29:59.749Z,101652.68
2018-06-03T19:32:27.414Z,101652.89
2018-06-03T19:34:55.085Z,101656.25
2018-06-03T19:37:22.745Z,101664.00
2018-06-03T19:39:50.530Z,101665.08
2018-06-03T19:42:18.204Z,101662.66
2018-06-03T19:44:46.139Z,101661.53
2018-06-03T19:47:13.836Z,101657.19
2018-06-03T19:49:41.859Z,101661.42
2018-06-03T19:52:09.571Z,101663.34
2018-06-03T19:54:37.255Z,101657.31
2018-06-03T19:57:05.559Z,101661.93
2018-06-03T19:59:33.241Z,101654.54
2018-06-03T20:02:01.108Z,101655.23
2018-06-03T20:04:29.996Z,101650.98
2018-06-03T20:09:51.219Z,101653.76
2018-06-03T20:12:18.930Z,101652.23
2018-06-03T20:14:46.534Z,101654.25
2018-06-03T20:17:14.994Z,101655.39
2018-06-03T20:19:42.618Z,101649.04
2018-06-03T20:22:10.547Z,101657.66
2018-06-03T20:24:38.531Z,101651.27
2018-06-03T20:27:06.246Z,101652.44
2018-06-03T20:29:34.175Z,101654.41
2018-06-03T20:32:02.123Z,101657.36
2018-06-03T20:34:30.300Z,101662.08
2018-06-03T20:36:57.986Z,101653.52
2018-06-03T20:39:25.973Z,101658.69
2018-06-03T20:41:54.012Z,101661.23
2018-06-03T20:44:21.761Z,101657.97
2018-06-03T20:46:50.012Z,101660.84
2018-06-03T20:49:17.611Z,101662.38
2018-06-03T20:51:45.225Z,101666.60
2018-06-03T20:54:12.857Z,101659.78
2018-06-03T20:56:40.828Z,101663.55
2018-06-03T20:59:08.678Z,101662.83
2018-06-03T21:01:37.296Z,101659.08
2018-06-03T21:04:05.454Z,101666.77
2018-06-03T21:06:33.076Z,101663.50
2018-06-03T21:09:00.742Z,101670.73
2018-06-03T21:11:28.998Z,101666.92
2018-06-03T21:13:57.183Z,101663.20
2018-06-03T21:16:25.152Z,101665.55
2018-06-03T21:18:53.425Z,101665.20
2018-06-03T21:21:21.394Z,101669.78
2018-06-03T21:23:49.565Z,101668.56
2018-06-03T21:26:17.385Z,101663.91
2018-06-03T21:28:45.468Z,101668.48
2018-06-03T21:31:13.090Z,101664.13
2018-06-03T21:33:40.969Z,101665.60
2018-06-03T21:36:09.031Z,101672.80
2018-06-03T21:38:36.952Z,101672.06
2018-06-03T21:41:04.574Z,101669.52
2018-06-03T21:43:32.178Z,101676.28
2018-06-03T21:46:00.083Z,101675.95
2018-06-03T21:48:28.266Z,101667.65
2018-06-03T21:50:56.557Z,101668.59
2018-06-03T21:53:24.432Z,101666.09
2018-06-03T21:55:52.345Z,101667.91
2018-06-03T21:58:20.725Z,101669.78
2018-06-03T22:00:48.354Z,101669.83
2018-06-03T22:03:16.206Z,101664.19
2018-06-03T22:05:44.669Z,101673.52
2018-06-03T22:08:12.597Z,101673.63
2018-06-03T22:10:40.543Z,101675.03
2018-06-03T22:13:08.583Z,101668.45
2018-06-03T22:15:36.222Z,101667.19
2018-06-03T22:18:04.049Z,101668.56
2018-06-03T22:20:31.685Z,101671.71
2018-06-03T22:22:59.658Z,101670.84
2018-06-03T22:25:27.703Z,101666.03
2018-06-03T22:27:55.308Z,101663.91
2018-06-03T22:30:23.307Z,101667.94
2018-06-03T22:32:51.267Z,101661.85
2018-06-03T22:35:18.901Z,101660.09
2018-06-03T22:37:46.888Z,101658.77
2018-06-03T22:40:14.820Z,101661.02
2018-06-03T22:42:42.840Z,101658.91
2018-06-03T22:45:10.478Z,101661.13
2018-06-03T22:47:38.119Z,101652.38
2018-06-03T22:50:06.094Z,101657.69
2018-06-03T22:52:33.725Z,101659.94
2018-06-03T22:55:01.649Z,101654.24
2018-06-03T22:57:41.674Z,101658.27
2018-06-03T23:00:09.460Z,101660.04
2018-06-03T23:02:37.060Z,101665.79
2018-06-03T23:05:05.383Z,101664.55
2018-06-03T23:07:33.010Z,101661.90
2018-06-03T23:10:00.901Z,101658.82
2018-06-03T23:12:28.558Z,101661.95
2018-06-03T23:14:56.150Z,101658.02
2018-06-03T23:17:23.778Z,101653.66
2018-06-03T23:19:51.441Z,101650.58
2018-06-03T23:22:19.807Z,101656.75
2018-06-03T23:24:47.730Z,101658.08
2018-06-03T23:27:15.701Z,101653.22
2018-06-03T23:29:43.765Z,101654.15
2018-06-03T23:32:11.973Z,101648.45
2018-06-03T23:34:40.244Z,101648.06
2018-06-03T23:37:07.959Z,101647.66
2018-06-03T23:39:35.955Z,101652.96
2018-06-03T23:42:03.578Z,101647.71
2018-06-03T23:44:31.479Z,101646.84
2018-06-03T23:46:59.627Z,101639.42
2018-06-03T23:49:27.289Z,101638.09
2018-06-03T23:51:55.546Z,101632.80
2018-06-03T23:54:23.764Z,101640.80
2018-06-03T23:56:51.943Z,101638.14
2018-06-03T23:59:19.907Z,101636.87
